createdAt,value
2018-04-27T00:02:08.294Z,7.33
2018-04-27T00:04:35.770Z,8.33
2018-04-27T00:07:03.274Z,7.93
2018-04-27T00:09:30.721Z,8.10
2018-04-27T00:11:58.186Z,7.53
2018-04-27T00:14:25.700Z,7.70
2018-04-27T00:16:53.138Z,8.00
2018-04-27T00:19:20.902Z,7.77
2018-04-27T00:21:48.404Z,7.20
2018-04-27T00:24:16.135Z,8.10
2018-04-27T00:26:43.600Z,7.90
2018-04-27T00:29:11.067Z,7.97
2018-04-27T00:31:38.563Z,8.17
2018-04-27T00:34:06.043Z,8.47
2018-04-27T00:36:34.629Z,8.00
2018-04-27T00:39:02.114Z,7.33
2018-04-27T00:41:29.631Z,8.87
2018-04-27T00:43:57.090Z,9.00
2018-04-27T00:46:24.622Z,9.17
2018-04-27T00:48:52.114Z,8.23
2018-04-27T00:51:19.578Z,8.47
2018-04-27T00:53:47.068Z,9.07
2018-04-27T00:56:14.523Z,9.13
2018-04-27T00:58:42.047Z,9.00
2018-04-27T01:01:09.490Z,8.83
2018-04-27T01:03:37.002Z,8.80
2018-04-27T01:06:04.435Z,8.37
2018-04-27T01:08:31.911Z,8.87
2018-04-27T01:10:59.373Z,9.33
2018-04-27T01:13:26.851Z,8.77
2018-04-27T01:15:54.311Z,8.63
2018-04-27T01:18:21.891Z,8.57
2018-04-27T01:20:49.337Z,9.13
2018-04-27T01:23:16.858Z,8.87
2018-04-27T01:25:44.319Z,9.63
2018-04-27T01:28:11.807Z,9.30
2018-04-27T01:30:39.256Z,9.37
2018-04-27T01:33:06.752Z,9.87
2018-04-27T01:35:34.203Z,10.00
2018-04-27T01:38:01.646Z,9.63
2018-04-27T01:40:29.162Z,8.90
2018-04-27T01:42:56.630Z,9.10
2018-04-27T01:45:24.160Z,8.93
2018-04-27T01:47:51.690Z,9.00
2018-04-27T01:50:19.118Z,9.17
2018-04-27T01:52:46.617Z,8.87
2018-04-27T01:55:14.959Z,8.87
2018-04-27T01:57:42.452Z,9.50
2018-04-27T02:00:09.931Z,9.03
2018-04-27T02:02:37.427Z,9.37
2018-04-27T02:05:04.865Z,8.47
2018-04-27T02:07:32.363Z,9.97
2018-04-27T02:09:59.825Z,10.13
2018-04-27T02:12:27.290Z,9.60
2018-04-27T02:14:54.786Z,9.50
2018-04-27T02:17:22.311Z,9.07
2018-04-27T02:19:49.793Z,9.60
2018-04-27T02:22:17.257Z,9.43
2018-04-27T02:24:44.691Z,8.77
2018-04-27T02:27:12.219Z,8.67
2018-04-27T02:29:41.658Z,9.07
2018-04-27T02:32:09.088Z,8.57
2018-04-27T02:34:36.527Z,8.70
2018-04-27T02:37:04.496Z,9.03
2018-04-27T02:39:32.060Z,8.90
2018-04-27T02:41:59.516Z,9.10
2018-04-27T02:44:27.590Z,8.97
2018-04-27T02:46:55.068Z,9.50
2018-04-27T02:49:22.525Z,9.13
2018-04-27T02:51:51.075Z,9.07
2018-04-27T02:54:18.543Z,9.57
2018-04-27T02:56:47.100Z,9.77
2018-04-27T02:59:14.540Z,9.17
2018-04-27T03:01:42.034Z,9.73
2018-04-27T03:04:10.065Z,9.73
2018-04-27T03:06:37.584Z,9.57
2018-04-27T03:09:05.055Z,9.10
2018-04-27T03:11:32.500Z,9.13
2018-04-27T03:13:59.957Z,10.20
2018-04-27T03:16:27.439Z,9.87
2018-04-27T03:18:54.922Z,9.90
2018-04-27T03:21:22.458Z,9.37
2018-04-27T03:23:50.033Z,9.40
2018-04-27T03:26:17.519Z,9.83
2018-04-27T03:28:44.989Z,9.90
2018-04-27T03:31:12.467Z,10.33
2018-04-27T03:33:39.920Z,9.77
2018-04-27T03:36:07.499Z,9.70
2018-04-27T03:38:35.126Z,9.63
2018-04-27T03:41:02.629Z,9.33
2018-04-27T03:43:30.063Z,9.87
2018-04-27T03:45:57.558Z,10.33
2018-04-27T03:48:25.024Z,10.03
2018-04-27T03:50:52.547Z,9.70
2018-04-27T03:53:19.991Z,10.33
2018-04-27T03:55:47.485Z,10.37
2018-04-27T03:58:14.962Z,10.63
2018-04-27T04:01:03.361Z,10.73
2018-04-27T04:03:42.550Z,10.40
2018-04-27T04:06:09.988Z,10.83
2018-04-27T04:08:37.515Z,10.30
2018-04-27T04:11:05.921Z,10.93
2018-04-27T04:13:33.404Z,10.50
2018-04-27T04:16:00.853Z,10.23
2018-04-27T04:18:28.285Z,10.93
2018-04-27T04:20:55.751Z,11.17
2018-04-27T04:23:23.203Z,10.93
2018-04-27T04:25:50.643Z,9.90
2018-04-27T04:28:18.101Z,10.53
2018-04-27T04:30:45.570Z,11.50
2018-04-27T04:33:13.095Z,10.50
2018-04-27T04:35:40.569Z,10.83
2018-04-27T04:38:08.023Z,11.20
2018-04-27T04:40:35.501Z,12.43
2018-04-27T04:43:03.009Z,10.90
2018-04-27T04:45:30.547Z,10.73
2018-04-27T04:47:58.008Z,10.83
2018-04-27T04:50:25.490Z,11.37
2018-04-27T04:52:52.965Z,11.23
2018-04-27T04:55:20.408Z,11.53
2018-04-27T04:57:47.875Z,11.30
2018-04-27T05:00:15.348Z,11.03
2018-04-27T05:02:42.858Z,11.63
2018-04-27T05:05:10.374Z,10.80
2018-04-27T05:07:37.853Z,11.43
2018-04-27T05:10:05.289Z,10.73
2018-04-27T05:12:32.783Z,11.87
2018-04-27T05:15:00.271Z,10.70
2018-04-27T05:17:27.823Z,11.87
2018-04-27T05:19:55.624Z,11.43
2018-04-27T05:22:23.076Z,11.13
2018-04-27T05:24:50.623Z,11.50
2018-04-27T05:27:18.655Z,10.57
2018-04-27T05:29:46.147Z,10.67
2018-04-27T05:32:13.622Z,10.60
2018-04-27T05:34:41.069Z,11.10
2018-04-27T05:37:08.521Z,10.57
2018-04-27T05:39:35.982Z,10.60
2018-04-27T05:42:03.429Z,9.93
2018-04-27T05:44:30.870Z,10.73
2018-04-27T05:46:58.393Z,10.70
2018-04-27T05:49:25.851Z,9.73
2018-04-27T05:51:53.518Z,9.87
2018-04-27T05:54:21.041Z,9.53
2018-04-27T05:56:48.528Z,9.83
2018-04-27T05:59:16.128Z,10.53
2018-04-27T06:01:43.736Z,9.37
2018-04-27T06:04:14.125Z,9.03
2018-04-27T06:06:41.634Z,10.40
2018-04-27T06:09:09.135Z,8.87
2018-04-27T06:11:36.601Z,9.30
2018-04-27T06:14:04.055Z,9.23
2018-04-27T06:16:31.505Z,8.30
2018-04-27T06:18:58.974Z,9.00
2018-04-27T06:21:31.459Z,9.50
2018-04-27T06:23:59.012Z,8.83
2018-04-27T06:26:26.738Z,8.47
2018-04-27T06:28:54.284Z,8.93
2018-04-27T06:31:21.815Z,8.40
2018-04-27T06:33:49.497Z,7.57
2018-04-27T06:36:17.076Z,10.97
2018-04-27T06:38:44.539Z,8.73
2018-04-27T06:41:12.050Z,7.73
2018-04-27T06:43:39.534Z,7.40
2018-04-27T06:46:07.110Z,7.60
2018-04-27T06:48:34.678Z,8.00
2018-04-27T06:51:02.498Z,8.03
2018-04-27T06:53:30.017Z,8.00
2018-04-27T06:55:57.492Z,7.67
2018-04-27T06:58:25.526Z,7.90
2018-04-27T07:00:53.028Z,8.17
2018-04-27T07:03:20.576Z,7.67
2018-04-27T07:05:48.125Z,7.07
2018-04-27T07:08:15.923Z,9.17
2018-04-27T07:10:43.506Z,8.20
2018-04-27T07:13:11.017Z,7.37
2018-04-27T07:15:38.494Z,7.10
2018-04-27T07:18:05.955Z,7.07
2018-04-27T07:20:34.548Z,7.07
2018-04-27T07:23:02.052Z,7.07
2018-04-27T07:25:29.540Z,7.17
2018-04-27T07:27:57.097Z,7.27
2018-04-27T07:30:24.620Z,6.67
2018-04-27T07:32:52.075Z,6.43
2018-04-27T07:35:19.535Z,5.70
2018-04-27T07:37:47.105Z,6.70
2018-04-27T07:40:14.692Z,7.03
2018-04-27T07:42:42.186Z,7.10
2018-04-27T07:45:09.688Z,6.77
2018-04-27T07:47:37.584Z,6.63
2018-04-27T07:50:05.141Z,6.33
2018-04-27T07:52:32.600Z,6.13
2018-04-27T07:55:00.048Z,6.37
2018-04-27T07:57:27.616Z,6.43
2018-04-27T07:59:55.080Z,6.00
2018-04-27T08:02:22.606Z,5.60
2018-04-27T08:04:50.026Z,5.87
2018-04-27T08:07:17.532Z,6.27
2018-04-27T08:09:45.042Z,6.30
2018-04-27T08:12:12.478Z,6.20
2018-04-27T08:14:39.937Z,6.53
2018-04-27T08:17:07.434Z,5.80
2018-04-27T08:19:34.919Z,6.00
2018-04-27T08:22:02.413Z,5.20
2018-04-27T08:24:29.906Z,5.70
2018-04-27T08:26:57.368Z,5.60
2018-04-27T08:29:24.830Z,6.10
2018-04-27T08:31:52.279Z,5.60
2018-04-27T08:34:19.724Z,6.00
2018-04-27T08:36:47.185Z,5.03
2018-04-27T08:39:14.637Z,5.47
2018-04-27T08:41:42.207Z,6.00
2018-04-27T08:44:09.657Z,5.10
2018-04-27T08:46:37.130Z,4.77
2018-04-27T08:49:04.628Z,5.20
2018-04-27T08:51:32.099Z,5.57
2018-04-27T08:53:59.668Z,4.70
2018-04-27T08:56:27.226Z,5.63
2018-04-27T08:58:54.908Z,4.00
2018-04-27T09:01:22.512Z,4.93
2018-04-27T09:03:50.007Z,4.13
2018-04-27T09:06:17.461Z,4.57
2018-04-27T09:08:45.047Z,4.70
2018-04-27T09:11:12.738Z,4.37
2018-04-27T09:13:40.239Z,4.00
2018-04-27T09:16:07.953Z,4.80
2018-04-27T09:18:35.452Z,3.67
2018-04-27T09:21:03.040Z,4.27
2018-04-27T09:23:30.496Z,3.50
2018-04-27T09:25:57.935Z,4.37
2018-04-27T09:28:25.476Z,4.00
2018-04-27T09:30:52.964Z,4.57
2018-04-27T09:33:21.400Z,4.03
2018-04-27T09:35:48.956Z,4.43
2018-04-27T09:38:16.452Z,3.97
2018-04-27T09:40:43.904Z,5.03
2018-04-27T09:43:11.363Z,3.83
2018-04-27T09:45:38.858Z,4.20
2018-04-27T09:48:06.357Z,4.70
2018-04-27T09:50:33.810Z,4.33
2018-04-27T09:53:01.396Z,4.63
2018-04-27T09:55:28.899Z,4.57
2018-04-27T09:57:56.388Z,4.27
2018-04-27T10:00:23.846Z,4.00
2018-04-27T10:02:51.333Z,3.90
2018-04-27T10:05:18.796Z,3.87
2018-04-27T10:07:46.252Z,3.53
2018-04-27T10:10:14.567Z,4.20
2018-04-27T10:12:42.066Z,3.50
2018-04-27T10:15:09.514Z,3.40
2018-04-27T10:17:37.026Z,3.23
2018-04-27T10:20:04.528Z,3.50
2018-04-27T10:22:31.966Z,3.73
2018-04-27T10:24:59.423Z,3.87
2018-04-27T10:27:26.852Z,3.60
2018-04-27T10:29:54.331Z,3.57
2018-04-27T10:32:21.787Z,3.50
2018-04-27T10:34:49.229Z,3.43
2018-04-27T10:37:16.688Z,2.97
2018-04-27T10:39:44.202Z,2.93
2018-04-27T10:42:11.670Z,3.50
2018-04-27T10:44:39.193Z,2.92
2018-04-27T10:47:06.659Z,2.92
2018-04-27T10:49:34.204Z,2.95
2018-04-27T10:52:02.364Z,2.95
2018-04-27T10:54:30.458Z,3.30
2018-04-27T10:56:58.567Z,2.97
2018-04-27T10:59:26.087Z,2.50
2018-04-27T11:01:53.569Z,2.62
2018-04-27T11:04:21.052Z,2.62
2018-04-27T11:06:48.678Z,2.58
2018-04-27T11:09:16.136Z,2.47
2018-04-27T11:11:43.799Z,2.80
2018-04-27T11:14:11.388Z,3.03
2018-04-27T11:16:38.875Z,2.90
2018-04-27T11:19:06.444Z,2.50
2018-04-27T11:21:33.882Z,2.75
2018-04-27T11:24:01.422Z,2.30
2018-04-27T11:26:28.932Z,2.55
2018-04-27T11:28:56.434Z,2.25
2018-04-27T11:31:23.928Z,2.60
2018-04-27T11:33:52.218Z,2.05
2018-04-27T11:36:19.698Z,2.20
2018-04-27T11:38:48.428Z,2.33
2018-04-27T11:41:16.377Z,2.20
2018-04-27T11:43:43.788Z,2.40
2018-04-27T11:46:11.354Z,2.47
2018-04-27T11:48:39.096Z,2.30
2018-04-27T11:51:07.444Z,2.55
2018-04-27T11:53:34.946Z,2.42
2018-04-27T11:56:02.442Z,2.30
2018-04-27T11:58:29.946Z,2.08
2018-04-27T12:00:57.399Z,2.30
2018-04-27T12:03:24.876Z,2.45
2018-04-27T12:05:52.361Z,1.80
2018-04-27T12:08:19.889Z,2.12
2018-04-27T12:10:47.335Z,1.90
2018-04-27T12:13:15.152Z,2.60
2018-04-27T12:15:42.651Z,2.33
2018-04-27T12:18:10.153Z,1.92
2018-04-27T12:20:37.615Z,2.35
2018-04-27T12:23:05.083Z,2.53
2018-04-27T12:25:32.593Z,1.90
2018-04-27T12:28:00.027Z,2.28
2018-04-27T12:30:27.660Z,2.45
2018-04-27T12:32:55.122Z,2.45
2018-04-27T12:35:22.643Z,1.92
2018-04-27T12:37:50.095Z,2.20
2018-04-27T12:40:17.655Z,2.00
2018-04-27T12:42:45.183Z,2.20
2018-04-27T12:45:13.121Z,1.98
2018-04-27T12:47:40.605Z,1.95
2018-04-27T12:50:08.337Z,2.55
2018-04-27T12:52:35.796Z,2.10
2018-04-27T12:55:03.250Z,2.78
2018-04-27T12:57:30.832Z,2.62
2018-04-27T12:59:58.352Z,2.50
2018-04-27T13:02:25.821Z,2.00
2018-04-27T13:04:53.333Z,2.42
2018-04-27T13:07:20.925Z,2.60
2018-04-27T13:09:48.611Z,2.15
2018-04-27T13:12:16.205Z,2.20
2018-04-27T13:14:43.728Z,2.40
2018-04-27T13:17:11.349Z,2.90
2018-04-27T13:19:38.807Z,2.25
2018-04-27T13:22:06.630Z,2.22
2018-04-27T13:24:34.220Z,2.72
2018-04-27T13:27:01.702Z,2.60
2018-04-27T13:29:29.217Z,3.10
2018-04-27T13:31:56.667Z,2.45
2018-04-27T13:34:24.219Z,3.10
2018-04-27T13:36:51.842Z,2.60
2018-04-27T13:39:19.455Z,2.60
2018-04-27T13:41:46.901Z,2.30
2018-04-27T13:44:14.335Z,2.30
2018-04-27T13:46:42.531Z,2.65
2018-04-27T13:49:10.327Z,2.60
2018-04-27T13:51:37.853Z,2.90
2018-04-27T13:54:05.363Z,2.72
2018-04-27T13:56:32.799Z,2.67
2018-04-27T13:59:01.055Z,2.53
2018-04-27T14:01:33.451Z,2.60
2018-04-27T14:04:01.186Z,2.67
2018-04-27T14:06:28.771Z,2.30
2018-04-27T14:08:56.317Z,2.75
2018-04-27T14:11:28.159Z,2.53
2018-04-27T14:13:57.303Z,2.70
2018-04-27T14:16:25.628Z,2.42
2018-04-27T14:18:53.961Z,2.35
2018-04-27T14:21:23.029Z,2.47
2018-04-27T14:23:50.556Z,2.45
2018-04-27T14:26:18.096Z,2.30
2018-04-27T14:28:46.349Z,2.25
2018-04-27T14:31:18.865Z,2.20
2018-04-27T14:33:46.958Z,2.10
2018-04-27T14:36:14.624Z,2.37
2018-04-27T14:38:42.220Z,2.10
2018-04-27T14:41:10.073Z,2.53
2018-04-27T14:43:38.356Z,2.42
2018-04-27T14:46:07.298Z,2.40
2018-04-27T14:48:35.467Z,2.45
2018-04-27T14:51:03.293Z,2.35
2018-04-27T14:53:31.068Z,2.75
2018-04-27T14:55:58.766Z,2.78
2018-04-27T14:58:26.533Z,2.72
2018-04-27T15:00:53.981Z,2.50
2018-04-27T15:03:22.385Z,2.30
2018-04-27T15:05:49.935Z,2.40
2018-04-27T15:08:17.430Z,2.42
2018-04-27T15:10:45.052Z,2.35
2018-04-27T15:13:15.414Z,2.58
2018-04-27T15:15:43.003Z,2.60
2018-04-27T15:18:10.607Z,2.55
2018-04-27T15:20:38.164Z,2.37
2018-04-27T15:23:06.359Z,2.90
2018-04-27T15:25:34.013Z,2.40
2018-04-27T15:28:04.672Z,2.47
2018-04-27T15:30:32.222Z,2.35
2018-04-27T15:32:59.908Z,2.70
2018-04-27T15:35:27.499Z,2.50
2018-04-27T15:37:55.056Z,2.20
2018-04-27T15:40:23.528Z,2.42
2018-04-27T15:42:51.062Z,2.42
2018-04-27T15:45:18.554Z,2.37
2018-04-27T15:47:46.012Z,2.53
2018-04-27T15:50:13.470Z,2.65
2018-04-27T15:52:40.991Z,2.50
2018-04-27T15:55:08.660Z,2.70
2018-04-27T15:57:36.462Z,2.15
2018-04-27T16:00:03.939Z,2.62
2018-04-27T16:02:31.399Z,2.75
2018-04-27T16:04:58.927Z,2.50
2018-04-27T16:07:26.394Z,2.47
2018-04-27T16:09:53.852Z,2.20
2018-04-27T16:12:21.339Z,2.55
2018-04-27T16:14:48.830Z,2.90
2018-04-27T16:17:16.370Z,2.50
2018-04-27T16:19:43.796Z,2.30
2018-04-27T16:22:11.549Z,2.30
2018-04-27T16:24:39.050Z,2.50
2018-04-27T16:27:06.494Z,2.50
2018-04-27T16:29:33.938Z,2.17
2018-04-27T16:32:02.420Z,2.28
2018-04-27T16:34:29.914Z,2.70
2018-04-27T16:36:57.445Z,2.10
2018-04-27T16:39:24.948Z,2.15
2018-04-27T16:41:52.557Z,2.60
2018-04-27T16:44:20.052Z,2.30
2018-04-27T16:46:47.544Z,2.58
2018-04-27T16:49:15.058Z,2.67
2018-04-27T16:51:42.534Z,2.45
2018-04-27T16:54:10.020Z,2.50
2018-04-27T16:56:37.535Z,2.85
2018-04-27T16:59:05.006Z,3.17
2018-04-27T17:01:32.619Z,2.60
2018-04-27T17:04:00.345Z,2.42
2018-04-27T17:06:27.847Z,2.50
2018-04-27T17:08:55.353Z,2.70
2018-04-27T17:11:22.830Z,2.83
2018-04-27T17:13:50.302Z,2.83
2018-04-27T17:16:17.816Z,2.78
2018-04-27T17:18:45.343Z,2.80
2018-04-27T17:21:12.875Z,3.03
2018-04-27T17:23:40.400Z,2.70
2018-04-27T17:26:07.855Z,2.78
2018-04-27T17:28:35.399Z,3.17
2018-04-27T17:31:22.068Z,3.35
2018-04-27T17:33:49.618Z,3.08
2018-04-27T17:36:17.102Z,3.00
2018-04-27T17:38:44.536Z,3.10
2018-04-27T17:41:12.036Z,3.20
2018-04-27T17:43:39.527Z,3.47
2018-04-27T17:46:06.970Z,2.90
2018-04-27T17:48:34.436Z,3.30
2018-04-27T17:51:01.909Z,3.30
2018-04-27T17:53:29.390Z,3.25
2018-04-27T17:55:56.891Z,4.20
2018-04-27T17:58:24.366Z,3.60
2018-04-27T18:00:51.865Z,3.50
2018-04-27T18:03:19.301Z,3.67
2018-04-27T18:05:46.764Z,3.50
2018-04-27T18:08:14.209Z,3.62
2018-04-27T18:10:41.656Z,3.50
2018-04-27T18:13:09.152Z,3.62
2018-04-27T18:15:36.736Z,3.28
2018-04-27T18:18:04.870Z,3.60
2018-04-27T18:20:32.274Z,3.85
2018-04-27T18:22:59.821Z,3.50
2018-04-27T18:25:27.232Z,3.83
2018-04-27T18:27:54.690Z,3.47
2018-04-27T18:30:22.157Z,3.60
2018-04-27T18:32:49.608Z,4.70
2018-04-27T18:35:17.065Z,4.18
2018-04-27T18:37:44.520Z,3.95
2018-04-27T18:40:12.326Z,3.85
2018-04-27T18:42:40.059Z,4.62
2018-04-27T18:45:07.509Z,4.07
2018-04-27T18:47:35.100Z,4.82
2018-04-27T18:50:02.594Z,3.90
2018-04-27T18:52:30.082Z,5.17
2018-04-27T18:54:57.711Z,4.57
2018-04-27T18:57:25.194Z,5.93
2018-04-27T18:59:52.658Z,4.75
2018-04-27T19:02:21.038Z,4.95
2018-04-27T19:04:48.504Z,5.50
2018-04-27T19:07:15.950Z,4.93
2018-04-27T19:09:43.449Z,4.70
2018-04-27T19:12:10.975Z,4.30
2018-04-27T19:14:38.464Z,5.03
2018-04-27T19:17:05.939Z,4.25
2018-04-27T19:19:33.663Z,4.70
2018-04-27T19:22:01.138Z,5.53
2018-04-27T19:24:28.631Z,4.80
2018-04-27T19:26:56.095Z,5.78
2018-04-27T19:29:23.604Z,4.95
2018-04-27T19:31:51.117Z,5.17
2018-04-27T19:34:18.567Z,5.97
2018-04-27T19:36:46.036Z,4.77
2018-04-27T19:39:13.490Z,5.10
2018-04-27T19:41:40.991Z,5.10
2018-04-27T19:44:08.474Z,5.93
2018-04-27T19:46:36.012Z,5.13
2018-04-27T19:49:03.476Z,6.03
2018-04-27T19:51:30.947Z,5.20
2018-04-27T19:53:58.471Z,6.03
2018-04-27T19:56:26.010Z,5.00
2018-04-27T19:58:53.509Z,5.67
2018-04-27T20:01:20.973Z,5.67
2018-04-27T20:03:48.425Z,5.22
2018-04-27T20:06:15.888Z,5.70
2018-04-27T20:08:43.488Z,6.23
2018-04-27T20:11:11.099Z,5.20
2018-04-27T20:13:40.282Z,5.93
2018-04-27T20:16:07.765Z,4.80
2018-04-27T20:18:35.316Z,5.67
2018-04-27T20:21:02.706Z,4.97
2018-04-27T20:23:36.049Z,5.93
2018-04-27T20:26:05.440Z,4.80
2018-04-27T20:28:33.679Z,6.13
2018-04-27T20:31:01.142Z,5.20
2018-04-27T20:33:28.635Z,6.03
2018-04-27T20:35:59.907Z,4.90
2018-04-27T20:38:28.159Z,6.17
2018-04-27T20:40:55.635Z,5.17
2018-04-27T20:43:25.545Z,5.13
2018-04-27T20:45:56.022Z,5.90
2018-04-27T20:48:26.368Z,5.10
2018-04-27T20:51:01.956Z,6.23
2018-04-27T20:53:31.931Z,5.17
2018-04-27T20:55:59.433Z,6.03
2018-04-27T20:58:27.947Z,4.77
2018-04-27T21:00:55.387Z,6.17
2018-04-27T21:03:22.841Z,5.03
2018-04-27T21:05:50.400Z,6.00
2018-04-27T21:08:17.859Z,4.80
2018-04-27T21:10:45.447Z,6.47
2018-04-27T21:13:12.917Z,5.57
2018-04-27T21:15:40.361Z,4.73
2018-04-27T21:18:08.556Z,6.30
2018-04-27T21:20:36.023Z,5.23
2018-04-27T21:23:03.467Z,5.93
2018-04-27T21:25:41.383Z,5.13
2018-04-27T21:28:14.213Z,6.33
2018-04-27T21:30:44.359Z,5.17
2018-04-27T21:33:11.894Z,5.40
2018-04-27T21:35:43.109Z,5.87
2018-04-27T21:38:23.367Z,5.13
2018-04-27T21:40:51.220Z,5.83
2018-04-27T21:43:18.810Z,4.90
2018-04-27T21:45:46.344Z,5.47
2018-04-27T21:48:14.231Z,4.93
2018-04-27T21:50:42.018Z,5.60
2018-04-27T21:53:09.535Z,4.90
2018-04-27T21:55:37.018Z,5.97
2018-04-27T21:58:07.019Z,5.27
2018-04-27T22:00:34.535Z,4.73
2018-04-27T22:03:02.764Z,6.03
2018-04-27T22:08:36.966Z,5.70
2018-04-27T22:14:04.102Z,4.73
2018-04-27T22:19:23.269Z,6.10
2018-04-27T22:21:51.649Z,5.27
2018-04-27T22:24:19.162Z,5.70
2018-04-27T22:26:46.629Z,4.70
2018-04-27T22:29:28.334Z,6.00
2018-04-27T22:31:55.801Z,4.90
2018-04-27T22:34:31.941Z,5.63
2018-04-27T22:36:59.403Z,5.13
2018-04-27T22:42:30.300Z,6.30
2018-04-27T22:45:18.139Z,5.37
2018-04-27T22:47:48.950Z,5.77
2018-04-27T22:50:22.230Z,5.03
2018-04-27T22:52:50.450Z,5.60
2018-04-27T22:55:18.942Z,4.97
2018-04-27T22:58:02.124Z,5.53
2018-04-27T23:00:44.442Z,4.50
2018-04-27T23:03:12.725Z,5.20
2018-04-27T23:05:40.168Z,5.07
2018-04-27T23:08:07.676Z,5.53
2018-04-27T23:13:51.610Z,4.60
2018-04-27T23:16:22.672Z,5.50
2018-04-27T23:18:50.112Z,4.67
2018-04-27T23:24:09.900Z,5.03
2018-04-27T23:26:37.311Z,4.40
2018-04-27T23:29:05.250Z,5.67
2018-04-27T23:31:32.730Z,4.77
2018-04-27T23:34:00.190Z,4.97
2018-04-27T23:36:27.632Z,4.57
2018-04-27T23:38:55.074Z,5.50
2018-04-27T23:41:22.514Z,4.00
2018-04-27T23:43:50.098Z,5.87
2018-04-27T23:46:26.770Z,4.77
2018-04-27T23:48:54.268Z,5.43
2018-04-27T23:51:21.786Z,4.90
2018-04-27T23:53:50.038Z,5.07
2018-04-27T23:56:17.486Z,5.00
2018-04-27T23:58:44.926Z,6.00
